sensor_id;sensor_type;location;lat;lon;timestamp;pressure;altitude;pressure_sealevel;temperature;humidity
73105;BME280;61296;50.526;30.792;2023-12-20T00:09:43;98927.41;;;5.14;87.99
73105;BME280;61296;50.526;30.792;2023-12-20T00:25:16;98861.47;;;5.08;84.91
73105;BME280;61296;50.526;30.792;2023-12-20T00:40:49;98876.34;;;5.85;80.68
73105;BME280;61296;50.526;30.792;2023-12-20T00:56:22;98823.25;;;5.82;79.95
73105;BME280;61296;50.526;30.792;2023-12-20T01:11:55;98820.84;;;5.77;79.92
73105;BME280;61296;50.526;30.792;2023-12-20T01:27:28;98796.88;;;5.67;79.26
73105;BME280;61296;50.526;30.792;2023-12-20T01:43:04;98769.38;;;5.75;76.34
73105;BME280;61296;50.526;30.792;2023-12-20T01:58:43;98725.03;;;5.82;72.54
73105;BME280;61296;50.526;30.792;2023-12-20T02:14:16;98759.94;;;6.64;68.92
73105;BME280;61296;50.526;30.792;2023-12-20T02:29:50;98733.84;;;6.67;67.20
73105;BME280;61296;50.526;30.792;2023-12-20T02:45:23;98736.94;;;6.92;65.91
73105;BME280;61296;50.526;30.792;2023-12-20T03:00:56;98735.47;;;6.72;66.37
73105;BME280;61296;50.526;30.792;2023-12-20T03:16:29;98717.03;;;6.65;66.47
73105;BME280;61296;50.526;30.792;2023-12-20T03:32:06;98685.34;;;6.34;67.05
73105;BME280;61296;50.526;30.792;2023-12-20T03:47:39;98652.00;;;5.95;67.81
73105;BME280;61296;50.526;30.792;2023-12-20T04:03:12;98721.19;;;6.29;68.09
73105;BME280;61296;50.526;30.792;2023-12-20T04:18:48;98725.13;;;6.08;68.61
73105;BME280;61296;50.526;30.792;2023-12-20T04:34:22;98677.63;;;5.67;68.93
73105;BME280;61296;50.526;30.792;2023-12-20T04:49:55;98746.66;;;5.91;69.64
73105;BME280;61296;50.526;30.792;2023-12-20T05:05:29;98742.28;;;5.86;69.49
73105;BME280;61296;50.526;30.792;2023-12-20T05:21:02;98735.00;;;5.94;69.92
73105;BME280;61296;50.526;30.792;2023-12-20T05:36:36;98718.41;;;5.83;69.74
73105;BME280;61296;50.526;30.792;2023-12-20T05:52:09;98721.47;;;5.78;69.68
73105;BME280;61296;50.526;30.792;2023-12-20T06:07:42;98751.47;;;5.78;70.28
73105;BME280;61296;50.526;30.792;2023-12-20T06:23:15;98742.13;;;5.79;69.61
73105;BME280;61296;50.526;30.792;2023-12-20T06:38:48;98740.31;;;6.06;69.37
73105;BME280;61296;50.526;30.792;2023-12-20T06:54:21;98734.28;;;6.20;68.22
73105;BME280;61296;50.526;30.792;2023-12-20T07:09:54;98740.84;;;6.38;68.47
73105;BME280;61296;50.526;30.792;2023-12-20T07:25:27;98700.84;;;6.26;69.09
73105;BME280;61296;50.526;30.792;2023-12-20T07:41:03;98689.81;;;6.46;68.68
73105;BME280;61296;50.526;30.792;2023-12-20T07:56:36;98701.97;;;7.08;67.31
73105;BME280;61296;50.526;30.792;2023-12-20T08:12:09;98704.09;;;7.56;67.31
73105;BME280;61296;50.526;30.792;2023-12-20T08:27:42;98660.59;;;7.43;69.38
73105;BME280;61296;50.526;30.792;2023-12-20T08:43:15;98676.03;;;7.62;71.20
73105;BME280;61296;50.526;30.792;2023-12-20T08:58:48;98649.25;;;7.89;71.98
73105;BME280;61296;50.526;30.792;2023-12-20T09:14:21;98644.19;;;8.43;71.69
73105;BME280;61296;50.526;30.792;2023-12-20T09:29:55;98637.25;;;8.56;68.72
73105;BME280;61296;50.526;30.792;2023-12-20T09:45:30;98635.16;;;8.35;66.69
73105;BME280;61296;50.526;30.792;2023-12-20T10:01:03;98624.44;;;8.19;61.82
73105;BME280;61296;50.526;30.792;2023-12-20T10:16:36;98634.38;;;8.34;57.70
73105;BME280;61296;50.526;30.792;2023-12-20T10:32:22;98624.38;;;8.67;55.95
73105;BME280;61296;50.526;30.792;2023-12-20T10:47:58;98599.31;;;8.72;57.04
73105;BME280;61296;50.526;30.792;2023-12-20T11:03:35;98555.50;;;8.83;58.18
73105;BME280;61296;50.526;30.792;2023-12-20T11:19:11;98570.47;;;9.14;59.90
73105;BME280;61296;50.526;30.792;2023-12-20T11:34:46;98546.16;;;9.16;55.01
73105;BME280;61296;50.526;30.792;2023-12-20T11:50:19;98534.75;;;8.96;54.78
73105;BME280;61296;50.526;30.792;2023-12-20T12:05:52;98555.94;;;8.99;56.84
73105;BME280;61296;50.526;30.792;2023-12-20T12:21:25;98488.16;;;8.92;57.67
73105;BME280;61296;50.526;30.792;2023-12-20T12:36:58;98481.47;;;8.79;52.78
73105;BME280;61296;50.526;30.792;2023-12-20T12:52:31;98506.19;;;8.90;52.93
73105;BME280;61296;50.526;30.792;2023-12-20T13:08:05;98463.00;;;8.51;59.67
73105;BME280;61296;50.526;30.792;2023-12-20T13:23:38;98497.34;;;8.27;62.90
73105;BME280;61296;50.526;30.792;2023-12-20T13:39:11;98399.94;;;7.50;64.48
73105;BME280;61296;50.526;30.792;2023-12-20T13:54:44;98464.19;;;7.70;65.56
73105;BME280;61296;50.526;30.792;2023-12-20T14:10:17;98431.78;;;7.17;67.32
73105;BME280;61296;50.526;30.792;2023-12-20T14:25:51;98451.25;;;7.09;68.87
73105;BME280;61296;50.526;30.792;2023-12-20T14:41:24;98455.72;;;6.83;70.44
73105;BME280;61296;50.526;30.792;2023-12-20T14:56:58;98433.16;;;6.53;72.80
73105;BME280;61296;50.526;30.792;2023-12-20T15:12:31;98359.41;;;5.78;74.98
73105;BME280;61296;50.526;30.792;2023-12-20T15:28:06;98452.97;;;6.09;77.21
73105;BME280;61296;50.526;30.792;2023-12-20T15:43:39;98429.94;;;5.80;78.42
73105;BME280;61296;50.526;30.792;2023-12-20T15:59:13;98405.16;;;5.62;79.17
73105;BME280;61296;50.526;30.792;2023-12-20T16:14:46;98417.56;;;5.56;79.94
73105;BME280;61296;50.526;30.792;2023-12-20T16:30:19;98384.25;;;5.13;80.20
73105;BME280;61296;50.526;30.792;2023-12-20T16:45:52;98407.50;;;5.07;81.08
73105;BME280;61296;50.526;30.792;2023-12-20T17:01:25;98376.66;;;4.77;82.81
73105;BME280;61296;50.526;30.792;2023-12-20T17:16:58;98352.16;;;4.54;84.27
73105;BME280;61296;50.526;30.792;2023-12-20T17:32:31;98315.06;;;4.46;84.47
73105;BME280;61296;50.526;30.792;2023-12-20T17:48:04;98346.78;;;4.80;84.33
73105;BME280;61296;50.526;30.792;2023-12-20T18:03:37;98356.06;;;5.02;84.16
73105;BME280;61296;50.526;30.792;2023-12-20T18:19:10;98266.16;;;4.49;84.21
73105;BME280;61296;50.526;30.792;2023-12-20T18:34:43;98346.03;;;4.83;85.63
73105;BME280;61296;50.526;30.792;2023-12-20T18:50:16;98342.72;;;4.71;86.00
73105;BME280;61296;50.526;30.792;2023-12-20T19:05:42;98330.50;;;4.61;85.34
73105;BME280;61296;50.526;30.792;2023-12-20T19:21:15;98271.47;;;4.42;84.73
73105;BME280;61296;50.526;30.792;2023-12-20T19:36:48;98296.06;;;4.72;84.36
73105;BME280;61296;50.526;30.792;2023-12-20T19:52:21;98291.91;;;4.82;84.33
73105;BME280;61296;50.526;30.792;2023-12-20T20:07:55;98234.69;;;4.52;84.42
73105;BME280;61296;50.526;30.792;2023-12-20T20:23:28;98251.59;;;4.64;84.14
73105;BME280;61296;50.526;30.792;2023-12-20T20:39:01;98263.03;;;5.04;81.02
73105;BME280;61296;50.526;30.792;2023-12-20T20:54:34;98249.81;;;5.06;79.21
73105;BME280;61296;50.526;30.792;2023-12-20T21:10:07;98259.25;;;5.12;78.15
73105;BME280;61296;50.526;30.792;2023-12-20T21:25:40;98258.38;;;5.38;76.53
73105;BME280;61296;50.526;30.792;2023-12-20T21:41:15;98196.59;;;5.15;77.42
73105;BME280;61296;50.526;30.792;2023-12-20T21:56:48;98223.84;;;5.15;79.23
73105;BME280;61296;50.526;30.792;2023-12-20T22:12:23;98232.88;;;5.53;92.32
73105;BME280;61296;50.526;30.792;2023-12-20T22:27:56;98262.75;;;5.12;85.02
73105;BME280;61296;50.526;30.792;2023-12-20T22:43:29;98218.31;;;4.48;87.37
73105;BME280;61296;50.526;30.792;2023-12-20T22:59:02;98223.34;;;4.23;88.74
73105;BME280;61296;50.526;30.792;2023-12-20T23:14:35;98253.56;;;4.41;89.36
73105;BME280;61296;50.526;30.792;2023-12-20T23:30:08;98252.00;;;4.40;89.55
73105;BME280;61296;50.526;30.792;2023-12-20T23:45:42;98183.00;;;3.80;89.60
